sensor_id;sensor_type;location;lat;lon;timestamp;P1;durP1;ratioP1;P2;durP2;ratioP2
17820;SDS011;9035;42.554;23.188;2022-10-15T00:01:04;2.87;;;2.07;;
17820;SDS011;9035;42.554;23.188;2022-10-15T00:03:34;3.07;;;2.40;;
17820;SDS011;9035;42.554;23.188;2022-10-15T00:06:05;4.77;;;2.27;;
17820;SDS011;9035;42.554;23.188;2022-10-15T00:08:34;2.23;;;1.70;;
17820;SDS011;9035;42.554;23.188;2022-10-15T00:11:02;4.90;;;1.70;;
17820;SDS011;9035;42.554;23.188;2022-10-15T00:13:30;3.67;;;2.10;;
17820;SDS011;9035;42.554;23.188;2022-10-15T00:15:58;2.70;;;2.00;;
17820;SDS011;9035;42.554;23.188;2022-10-15T00:18:25;3.40;;;2.37;;
17820;SDS011;9035;42.554;23.188;2022-10-15T00:20:51;2.13;;;1.70;;
17820;SDS011;9035;42.554;23.188;2022-10-15T00:23:18;4.57;;;2.10;;
17820;SDS011;9035;42.554;23.188;2022-10-15T00:25:47;3.07;;;2.20;;
17820;SDS011;9035;42.554;23.188;2022-10-15T00:28:13;2.77;;;2.00;;
17820;SDS011;9035;42.554;23.188;2022-10-15T00:30:40;5.33;;;2.33;;
17820;SDS011;9035;42.554;23.188;2022-10-15T00:33:07;3.23;;;2.43;;
17820;SDS011;9035;42.554;23.188;2022-10-15T00:35:34;4.33;;;2.40;;
17820;SDS011;9035;42.554;23.188;2022-10-15T00:38:01;3.27;;;1.80;;
17820;SDS011;9035;42.554;23.188;2022-10-15T00:40:27;3.50;;;1.90;;
17820;SDS011;9035;42.554;23.188;2022-10-15T00:42:55;2.90;;;2.20;;
17820;SDS011;9035;42.554;23.188;2022-10-15T00:45:22;4.70;;;2.30;;
17820;SDS011;9035;42.554;23.188;2022-10-15T00:47:49;3.67;;;2.27;;
17820;SDS011;9035;42.554;23.188;2022-10-15T00:50:17;3.30;;;2.30;;
17820;SDS011;9035;42.554;23.188;2022-10-15T00:52:48;2.90;;;2.10;;
17820;SDS011;9035;42.554;23.188;2022-10-15T00:55:26;3.77;;;1.93;;
17820;SDS011;9035;42.554;23.188;2022-10-15T00:57:57;3.70;;;2.23;;
17820;SDS011;9035;42.554;23.188;2022-10-15T01:00:27;2.60;;;2.17;;
17820;SDS011;9035;42.554;23.188;2022-10-15T01:02:54;2.50;;;2.00;;
17820;SDS011;9035;42.554;23.188;2022-10-15T01:05:21;3.43;;;2.43;;
17820;SDS011;9035;42.554;23.188;2022-10-15T01:07:49;3.40;;;2.20;;
17820;SDS011;9035;42.554;23.188;2022-10-15T01:10:16;5.13;;;2.23;;
17820;SDS011;9035;42.554;23.188;2022-10-15T01:12:49;4.30;;;1.97;;
17820;SDS011;9035;42.554;23.188;2022-10-15T01:15:24;4.00;;;2.43;;
17820;SDS011;9035;42.554;23.188;2022-10-15T01:17:56;3.67;;;2.50;;
17820;SDS011;9035;42.554;23.188;2022-10-15T01:23:39;4.50;;;2.93;;
17820;SDS011;9035;42.554;23.188;2022-10-15T01:26:31;6.00;;;2.40;;
17820;SDS011;9035;42.554;23.188;2022-10-15T01:29:16;6.03;;;2.60;;
17820;SDS011;9035;42.554;23.188;2022-10-15T01:31:56;5.17;;;2.37;;
17820;SDS011;9035;42.554;23.188;2022-10-15T01:34:30;5.47;;;2.50;;
17820;SDS011;9035;42.554;23.188;2022-10-15T01:37:06;3.67;;;2.60;;
17820;SDS011;9035;42.554;23.188;2022-10-15T01:39:38;4.77;;;2.77;;
17820;SDS011;9035;42.554;23.188;2022-10-15T01:42:09;2.53;;;2.27;;
17820;SDS011;9035;42.554;23.188;2022-10-15T01:44:41;2.73;;;2.20;;
17820;SDS011;9035;42.554;23.188;2022-10-15T01:47:16;6.20;;;2.73;;
17820;SDS011;9035;42.554;23.188;2022-10-15T01:49:46;3.40;;;2.20;;
17820;SDS011;9035;42.554;23.188;2022-10-15T01:52:17;3.43;;;2.70;;
17820;SDS011;9035;42.554;23.188;2022-10-15T01:54:46;3.63;;;2.77;;
17820;SDS011;9035;42.554;23.188;2022-10-15T01:57:14;4.23;;;2.80;;
17820;SDS011;9035;42.554;23.188;2022-10-15T01:59:43;3.40;;;2.47;;
17820;SDS011;9035;42.554;23.188;2022-10-15T02:02:10;4.83;;;2.50;;
17820;SDS011;9035;42.554;23.188;2022-10-15T02:04:39;3.47;;;2.47;;
17820;SDS011;9035;42.554;23.188;2022-10-15T02:07:06;7.00;;;2.93;;
17820;SDS011;9035;42.554;23.188;2022-10-15T02:09:38;3.83;;;2.70;;
17820;SDS011;9035;42.554;23.188;2022-10-15T02:12:15;4.23;;;2.80;;
17820;SDS011;9035;42.554;23.188;2022-10-15T02:14:55;5.40;;;2.73;;
17820;SDS011;9035;42.554;23.188;2022-10-15T02:17:30;4.17;;;3.00;;
17820;SDS011;9035;42.554;23.188;2022-10-15T02:20:03;4.20;;;2.93;;
17820;SDS011;9035;42.554;23.188;2022-10-15T02:22:37;6.23;;;2.73;;
17820;SDS011;9035;42.554;23.188;2022-10-15T02:25:12;4.27;;;2.37;;
17820;SDS011;9035;42.554;23.188;2022-10-15T02:27:42;5.63;;;3.10;;
17820;SDS011;9035;42.554;23.188;2022-10-15T02:30:12;3.50;;;2.57;;
17820;SDS011;9035;42.554;23.188;2022-10-15T02:32:40;4.33;;;3.07;;
17820;SDS011;9035;42.554;23.188;2022-10-15T02:35:12;4.77;;;3.57;;
17820;SDS011;9035;42.554;23.188;2022-10-15T02:37:41;5.73;;;3.40;;
17820;SDS011;9035;42.554;23.188;2022-10-15T02:40:12;3.73;;;3.13;;
17820;SDS011;9035;42.554;23.188;2022-10-15T02:42:39;5.60;;;3.53;;
17820;SDS011;9035;42.554;23.188;2022-10-15T02:45:06;5.07;;;2.80;;
17820;SDS011;9035;42.554;23.188;2022-10-15T02:47:34;4.33;;;3.27;;
17820;SDS011;9035;42.554;23.188;2022-10-15T02:50:01;4.97;;;3.63;;
17820;SDS011;9035;42.554;23.188;2022-10-15T02:52:29;6.10;;;3.20;;
17820;SDS011;9035;42.554;23.188;2022-10-15T02:54:56;4.53;;;3.30;;
17820;SDS011;9035;42.554;23.188;2022-10-15T02:57:22;7.40;;;3.43;;
17820;SDS011;9035;42.554;23.188;2022-10-15T02:59:49;3.93;;;3.10;;
17820;SDS011;9035;42.554;23.188;2022-10-15T03:02:16;6.50;;;3.67;;
17820;SDS011;9035;42.554;23.188;2022-10-15T03:04:43;6.57;;;3.63;;
17820;SDS011;9035;42.554;23.188;2022-10-15T03:07:09;5.23;;;3.43;;
17820;SDS011;9035;42.554;23.188;2022-10-15T03:09:37;5.27;;;3.77;;
17820;SDS011;9035;42.554;23.188;2022-10-15T03:12:04;4.83;;;3.20;;
17820;SDS011;9035;42.554;23.188;2022-10-15T03:14:32;6.67;;;3.53;;
17820;SDS011;9035;42.554;23.188;2022-10-15T03:16:58;5.53;;;3.50;;
17820;SDS011;9035;42.554;23.188;2022-10-15T03:19:25;4.10;;;3.20;;
17820;SDS011;9035;42.554;23.188;2022-10-15T03:21:52;4.20;;;3.27;;
17820;SDS011;9035;42.554;23.188;2022-10-15T03:24:18;4.87;;;3.10;;
17820;SDS011;9035;42.554;23.188;2022-10-15T03:26:47;6.13;;;3.67;;
17820;SDS011;9035;42.554;23.188;2022-10-15T03:29:14;5.60;;;3.17;;
17820;SDS011;9035;42.554;23.188;2022-10-15T03:31:40;4.73;;;3.67;;
17820;SDS011;9035;42.554;23.188;2022-10-15T03:34:07;4.80;;;3.40;;
17820;SDS011;9035;42.554;23.188;2022-10-15T03:36:34;4.47;;;3.13;;
17820;SDS011;9035;42.554;23.188;2022-10-15T03:39:01;7.40;;;4.00;;
17820;SDS011;9035;42.554;23.188;2022-10-15T03:41:27;7.73;;;4.07;;
17820;SDS011;9035;42.554;23.188;2022-10-15T03:43:55;7.00;;;4.07;;
17820;SDS011;9035;42.554;23.188;2022-10-15T03:46:26;6.67;;;3.90;;
17820;SDS011;9035;42.554;23.188;2022-10-15T03:48:52;5.60;;;3.50;;
17820;SDS011;9035;42.554;23.188;2022-10-15T03:51:19;5.90;;;4.07;;
17820;SDS011;9035;42.554;23.188;2022-10-15T03:53:46;4.57;;;3.80;;
17820;SDS011;9035;42.554;23.188;2022-10-15T03:56:13;4.50;;;3.67;;
17820;SDS011;9035;42.554;23.188;2022-10-15T03:58:39;4.13;;;3.73;;
17820;SDS011;9035;42.554;23.188;2022-10-15T04:01:08;5.50;;;3.57;;
17820;SDS011;9035;42.554;23.188;2022-10-15T04:03:35;4.80;;;3.67;;
17820;SDS011;9035;42.554;23.188;2022-10-15T04:06:02;5.30;;;3.70;;
17820;SDS011;9035;42.554;23.188;2022-10-15T04:08:29;4.60;;;3.87;;
17820;SDS011;9035;42.554;23.188;2022-10-15T04:10:56;5.77;;;4.17;;
17820;SDS011;9035;42.554;23.188;2022-10-15T04:13:24;3.70;;;3.40;;
17820;SDS011;9035;42.554;23.188;2022-10-15T04:15:50;4.47;;;4.03;;
17820;SDS011;9035;42.554;23.188;2022-10-15T04:18:18;3.87;;;3.47;;
17820;SDS011;9035;42.554;23.188;2022-10-15T04:20:46;6.23;;;4.00;;
17820;SDS011;9035;42.554;23.188;2022-10-15T04:23:13;5.40;;;3.87;;
17820;SDS011;9035;42.554;23.188;2022-10-15T04:25:40;4.90;;;3.57;;
17820;SDS011;9035;42.554;23.188;2022-10-15T04:28:06;5.33;;;3.93;;
17820;SDS011;9035;42.554;23.188;2022-10-15T04:30:34;5.27;;;3.73;;
17820;SDS011;9035;42.554;23.188;2022-10-15T04:33:00;6.23;;;3.97;;
17820;SDS011;9035;42.554;23.188;2022-10-15T04:35:28;6.37;;;3.60;;
17820;SDS011;9035;42.554;23.188;2022-10-15T04:37:56;6.93;;;3.37;;
17820;SDS011;9035;42.554;23.188;2022-10-15T04:40:23;5.93;;;4.00;;
17820;SDS011;9035;42.554;23.188;2022-10-15T04:42:50;6.73;;;4.73;;
17820;SDS011;9035;42.554;23.188;2022-10-15T04:45:16;5.07;;;4.07;;
17820;SDS011;9035;42.554;23.188;2022-10-15T04:47:43;4.73;;;4.03;;
17820;SDS011;9035;42.554;23.188;2022-10-15T04:50:11;4.67;;;3.93;;
17820;SDS011;9035;42.554;23.188;2022-10-15T04:52:39;5.73;;;4.13;;
17820;SDS011;9035;42.554;23.188;2022-10-15T04:55:06;5.37;;;4.30;;
17820;SDS011;9035;42.554;23.188;2022-10-15T04:57:33;4.10;;;3.57;;
17820;SDS011;9035;42.554;23.188;2022-10-15T04:59:59;5.00;;;3.93;;
17820;SDS011;9035;42.554;23.188;2022-10-15T05:02:26;4.67;;;3.67;;
17820;SDS011;9035;42.554;23.188;2022-10-15T05:04:54;4.67;;;3.90;;
17820;SDS011;9035;42.554;23.188;2022-10-15T05:07:21;8.13;;;4.43;;
17820;SDS011;9035;42.554;23.188;2022-10-15T05:09:49;4.50;;;4.10;;
17820;SDS011;9035;42.554;23.188;2022-10-15T05:12:16;5.70;;;4.33;;
17820;SDS011;9035;42.554;23.188;2022-10-15T05:14:42;6.27;;;4.10;;
17820;SDS011;9035;42.554;23.188;2022-10-15T05:17:09;6.83;;;3.80;;
17820;SDS011;9035;42.554;23.188;2022-10-15T05:19:36;4.73;;;3.80;;
17820;SDS011;9035;42.554;23.188;2022-10-15T05:22:03;4.70;;;4.30;;
17820;SDS011;9035;42.554;23.188;2022-10-15T05:24:30;4.10;;;3.77;;
17820;SDS011;9035;42.554;23.188;2022-10-15T05:26:58;6.67;;;4.97;;
17820;SDS011;9035;42.554;23.188;2022-10-15T05:29:25;6.67;;;4.27;;
17820;SDS011;9035;42.554;23.188;2022-10-15T05:31:51;5.53;;;4.20;;
17820;SDS011;9035;42.554;23.188;2022-10-15T05:34:18;6.13;;;4.70;;
17820;SDS011;9035;42.554;23.188;2022-10-15T05:36:45;21.93;;;6.67;;
17820;SDS011;9035;42.554;23.188;2022-10-15T05:39:12;11.30;;;5.33;;
17820;SDS011;9035;42.554;23.188;2022-10-15T05:41:39;4.50;;;4.10;;
17820;SDS011;9035;42.554;23.188;2022-10-15T05:44:07;6.10;;;4.13;;
17820;SDS011;9035;42.554;23.188;2022-10-15T05:46:33;4.80;;;4.20;;
17820;SDS011;9035;42.554;23.188;2022-10-15T05:49:00;8.10;;;4.73;;
17820;SDS011;9035;42.554;23.188;2022-10-15T05:51:27;5.30;;;3.90;;
17820;SDS011;9035;42.554;23.188;2022-10-15T05:53:54;7.73;;;5.47;;
17820;SDS011;9035;42.554;23.188;2022-10-15T05:59:08;5.87;;;4.57;;
17820;SDS011;9035;42.554;23.188;2022-10-15T06:01:35;5.33;;;4.20;;
17820;SDS011;9035;42.554;23.188;2022-10-15T06:04:02;5.13;;;4.63;;
17820;SDS011;9035;42.554;23.188;2022-10-15T06:06:29;6.63;;;4.53;;
17820;SDS011;9035;42.554;23.188;2022-10-15T06:08:57;5.60;;;4.30;;
17820;SDS011;9035;42.554;23.188;2022-10-15T06:11:23;5.33;;;4.20;;
17820;SDS011;9035;42.554;23.188;2022-10-15T06:13:50;5.37;;;4.47;;
17820;SDS011;9035;42.554;23.188;2022-10-15T06:16:18;5.47;;;4.30;;
17820;SDS011;9035;42.554;23.188;2022-10-15T06:18:45;6.73;;;4.40;;
17820;SDS011;9035;42.554;23.188;2022-10-15T06:21:12;6.10;;;5.37;;
17820;SDS011;9035;42.554;23.188;2022-10-15T06:23:38;13.10;;;7.40;;
17820;SDS011;9035;42.554;23.188;2022-10-15T06:26:06;8.50;;;6.43;;
17820;SDS011;9035;42.554;23.188;2022-10-15T06:28:35;4.97;;;4.57;;
17820;SDS011;9035;42.554;23.188;2022-10-15T06:31:02;4.60;;;4.20;;
17820;SDS011;9035;42.554;23.188;2022-10-15T06:33:31;7.83;;;4.40;;
17820;SDS011;9035;42.554;23.188;2022-10-15T06:36:00;6.03;;;5.43;;
17820;SDS011;9035;42.554;23.188;2022-10-15T06:38:28;7.77;;;5.77;;
17820;SDS011;9035;42.554;23.188;2022-10-15T06:40:54;8.30;;;5.40;;
17820;SDS011;9035;42.554;23.188;2022-10-15T06:43:21;6.23;;;4.67;;
17820;SDS011;9035;42.554;23.188;2022-10-15T06:45:48;7.77;;;5.77;;
17820;SDS011;9035;42.554;23.188;2022-10-15T06:48:16;10.87;;;7.73;;
17820;SDS011;9035;42.554;23.188;2022-10-15T06:50:45;12.63;;;8.73;;
17820;SDS011;9035;42.554;23.188;2022-10-15T06:53:11;9.17;;;7.83;;
17820;SDS011;9035;42.554;23.188;2022-10-15T06:55:38;10.50;;;7.70;;
17820;SDS011;9035;42.554;23.188;2022-10-15T06:58:05;9.83;;;7.30;;
17820;SDS011;9035;42.554;23.188;2022-10-15T07:00:32;10.17;;;7.67;;
17820;SDS011;9035;42.554;23.188;2022-10-15T07:03:01;13.80;;;9.00;;
17820;SDS011;9035;42.554;23.188;2022-10-15T07:05:29;10.90;;;9.40;;
17820;SDS011;9035;42.554;23.188;2022-10-15T07:07:57;13.80;;;9.90;;
17820;SDS011;9035;42.554;23.188;2022-10-15T07:10:25;16.73;;;11.10;;
17820;SDS011;9035;42.554;23.188;2022-10-15T07:12:53;12.43;;;10.60;;
17820;SDS011;9035;42.554;23.188;2022-10-15T07:15:20;13.00;;;9.67;;
17820;SDS011;9035;42.554;23.188;2022-10-15T07:17:47;13.00;;;9.63;;
17820;SDS011;9035;42.554;23.188;2022-10-15T07:20:14;11.43;;;9.70;;
17820;SDS011;9035;42.554;23.188;2022-10-15T07:22:41;11.47;;;9.30;;
17820;SDS011;9035;42.554;23.188;2022-10-15T07:25:09;12.10;;;9.90;;
17820;SDS011;9035;42.554;23.188;2022-10-15T07:27:37;12.80;;;9.27;;
17820;SDS011;9035;42.554;23.188;2022-10-15T07:30:04;13.47;;;9.60;;
17820;SDS011;9035;42.554;23.188;2022-10-15T07:32:32;13.13;;;9.10;;
17820;SDS011;9035;42.554;23.188;2022-10-15T07:34:59;9.30;;;8.07;;
17820;SDS011;9035;42.554;23.188;2022-10-15T07:37:26;10.97;;;8.37;;
17820;SDS011;9035;42.554;23.188;2022-10-15T07:39:53;10.90;;;7.73;;
17820;SDS011;9035;42.554;23.188;2022-10-15T07:42:22;11.37;;;7.90;;
17820;SDS011;9035;42.554;23.188;2022-10-15T07:44:48;12.33;;;7.30;;
17820;SDS011;9035;42.554;23.188;2022-10-15T07:47:15;9.73;;;7.53;;
17820;SDS011;9035;42.554;23.188;2022-10-15T07:49:42;10.77;;;7.33;;
17820;SDS011;9035;42.554;23.188;2022-10-15T07:52:08;11.07;;;7.53;;
17820;SDS011;9035;42.554;23.188;2022-10-15T07:54:35;7.60;;;6.50;;
17820;SDS011;9035;42.554;23.188;2022-10-15T07:57:02;7.13;;;6.10;;
17820;SDS011;9035;42.554;23.188;2022-10-15T07:59:32;7.23;;;6.53;;
17820;SDS011;9035;42.554;23.188;2022-10-15T08:01:59;7.53;;;6.00;;
17820;SDS011;9035;42.554;23.188;2022-10-15T08:04:26;7.63;;;5.73;;
17820;SDS011;9035;42.554;23.188;2022-10-15T08:06:53;6.80;;;5.60;;
17820;SDS011;9035;42.554;23.188;2022-10-15T08:09:20;9.97;;;6.43;;
17820;SDS011;9035;42.554;23.188;2022-10-15T08:11:47;8.33;;;5.40;;
17820;SDS011;9035;42.554;23.188;2022-10-15T08:14:13;7.53;;;5.10;;
17820;SDS011;9035;42.554;23.188;2022-10-15T08:16:41;5.93;;;4.93;;
17820;SDS011;9035;42.554;23.188;2022-10-15T08:19:08;7.43;;;5.20;;
17820;SDS011;9035;42.554;23.188;2022-10-15T08:21:35;5.13;;;4.67;;
17820;SDS011;9035;42.554;23.188;2022-10-15T08:24:02;6.73;;;4.87;;
17820;SDS011;9035;42.554;23.188;2022-10-15T08:26:29;9.53;;;4.77;;
17820;SDS011;9035;42.554;23.188;2022-10-15T08:28:56;5.30;;;4.80;;
17820;SDS011;9035;42.554;23.188;2022-10-15T08:31:23;6.57;;;4.90;;
17820;SDS011;9035;42.554;23.188;2022-10-15T08:33:51;7.83;;;4.80;;
17820;SDS011;9035;42.554;23.188;2022-10-15T08:36:17;7.10;;;4.63;;
17820;SDS011;9035;42.554;23.188;2022-10-15T08:38:44;4.53;;;4.10;;
17820;SDS011;9035;42.554;23.188;2022-10-15T08:41:15;5.57;;;4.13;;
17820;SDS011;9035;42.554;23.188;2022-10-15T08:43:47;5.17;;;3.97;;
17820;SDS011;9035;42.554;23.188;2022-10-15T08:46:15;5.00;;;3.97;;
17820;SDS011;9035;42.554;23.188;2022-10-15T08:48:46;5.43;;;4.10;;
17820;SDS011;9035;42.554;23.188;2022-10-15T08:51:17;6.57;;;4.43;;
17820;SDS011;9035;42.554;23.188;2022-10-15T08:53:48;5.37;;;4.60;;
17820;SDS011;9035;42.554;23.188;2022-10-15T08:56:18;8.27;;;4.70;;
17820;SDS011;9035;42.554;23.188;2022-10-15T08:58:50;5.47;;;4.70;;
17820;SDS011;9035;42.554;23.188;2022-10-15T09:01:24;6.50;;;4.87;;
17820;SDS011;9035;42.554;23.188;2022-10-15T09:04:00;5.87;;;4.50;;
17820;SDS011;9035;42.554;23.188;2022-10-15T09:06:41;5.20;;;4.70;;
17820;SDS011;9035;42.554;23.188;2022-10-15T09:09:11;8.80;;;4.90;;
17820;SDS011;9035;42.554;23.188;2022-10-15T09:11:47;5.97;;;4.60;;
17820;SDS011;9035;42.554;23.188;2022-10-15T09:14:23;5.40;;;4.40;;
17820;SDS011;9035;42.554;23.188;2022-10-15T09:16:55;7.30;;;5.10;;
17820;SDS011;9035;42.554;23.188;2022-10-15T09:19:29;6.37;;;4.80;;
17820;SDS011;9035;42.554;23.188;2022-10-15T09:21:59;5.70;;;4.90;;
17820;SDS011;9035;42.554;23.188;2022-10-15T09:24:27;5.60;;;4.83;;
17820;SDS011;9035;42.554;23.188;2022-10-15T09:26:59;5.60;;;4.37;;
17820;SDS011;9035;42.554;23.188;2022-10-15T09:29:32;6.83;;;4.53;;
17820;SDS011;9035;42.554;23.188;2022-10-15T09:32:08;5.40;;;4.67;;
17820;SDS011;9035;42.554;23.188;2022-10-15T09:34:41;6.73;;;5.00;;
17820;SDS011;9035;42.554;23.188;2022-10-15T09:37:15;6.27;;;5.00;;
17820;SDS011;9035;42.554;23.188;2022-10-15T09:42:46;6.00;;;4.43;;
17820;SDS011;9035;42.554;23.188;2022-10-15T09:45:16;6.10;;;5.33;;
17820;SDS011;9035;42.554;23.188;2022-10-15T09:47:43;6.43;;;4.93;;
17820;SDS011;9035;42.554;23.188;2022-10-15T09:50:11;8.73;;;4.87;;
17820;SDS011;9035;42.554;23.188;2022-10-15T09:52:45;5.90;;;4.40;;
17820;SDS011;9035;42.554;23.188;2022-10-15T09:55:30;7.47;;;5.23;;
17820;SDS011;9035;42.554;23.188;2022-10-15T09:58:03;5.87;;;5.23;;
17820;SDS011;9035;42.554;23.188;2022-10-15T10:03:24;7.47;;;5.20;;
17820;SDS011;9035;42.554;23.188;2022-10-15T10:05:57;5.50;;;5.00;;
17820;SDS011;9035;42.554;23.188;2022-10-15T10:08:28;6.40;;;4.93;;
17820;SDS011;9035;42.554;23.188;2022-10-15T10:10:59;6.13;;;5.00;;
17820;SDS011;9035;42.554;23.188;2022-10-15T10:13:29;6.37;;;5.30;;
17820;SDS011;9035;42.554;23.188;2022-10-15T10:16:00;7.03;;;4.87;;
17820;SDS011;9035;42.554;23.188;2022-10-15T10:18:30;7.13;;;5.10;;
17820;SDS011;9035;42.554;23.188;2022-10-15T10:20:58;6.17;;;4.43;;
17820;SDS011;9035;42.554;23.188;2022-10-15T10:23:33;6.43;;;4.77;;
17820;SDS011;9035;42.554;23.188;2022-10-15T10:26:01;7.23;;;4.90;;
17820;SDS011;9035;42.554;23.188;2022-10-15T10:28:31;8.33;;;4.90;;
17820;SDS011;9035;42.554;23.188;2022-10-15T10:31:03;5.23;;;4.47;;
17820;SDS011;9035;42.554;23.188;2022-10-15T10:33:34;7.07;;;4.20;;
17820;SDS011;9035;42.554;23.188;2022-10-15T10:36:04;5.07;;;4.53;;
17820;SDS011;9035;42.554;23.188;2022-10-15T10:38:35;7.43;;;4.90;;
17820;SDS011;9035;42.554;23.188;2022-10-15T10:41:03;5.40;;;4.63;;
17820;SDS011;9035;42.554;23.188;2022-10-15T10:43:33;7.43;;;5.20;;
17820;SDS011;9035;42.554;23.188;2022-10-15T10:46:02;8.80;;;4.87;;
17820;SDS011;9035;42.554;23.188;2022-10-15T10:48:40;5.33;;;4.83;;
17820;SDS011;9035;42.554;23.188;2022-10-15T10:51:10;8.27;;;5.20;;
17820;SDS011;9035;42.554;23.188;2022-10-15T10:53:46;6.83;;;5.10;;
17820;SDS011;9035;42.554;23.188;2022-10-15T10:56:15;5.97;;;4.60;;
17820;SDS011;9035;42.554;23.188;2022-10-15T10:58:47;5.63;;;4.80;;
17820;SDS011;9035;42.554;23.188;2022-10-15T11:01:20;6.70;;;5.17;;
17820;SDS011;9035;42.554;23.188;2022-10-15T11:03:47;10.80;;;6.77;;
17820;SDS011;9035;42.554;23.188;2022-10-15T11:15:04;5.47;;;4.63;;
17820;SDS011;9035;42.554;23.188;2022-10-15T11:17:46;6.13;;;5.00;;
17820;SDS011;9035;42.554;23.188;2022-10-15T11:20:22;5.10;;;4.53;;
17820;SDS011;9035;42.554;23.188;2022-10-15T11:22:57;5.30;;;4.73;;
17820;SDS011;9035;42.554;23.188;2022-10-15T11:25:37;7.47;;;4.73;;
17820;SDS011;9035;42.554;23.188;2022-10-15T11:28:22;8.87;;;5.80;;
17820;SDS011;9035;42.554;23.188;2022-10-15T11:30:58;7.70;;;4.87;;
17820;SDS011;9035;42.554;23.188;2022-10-15T11:33:38;6.80;;;4.57;;
17820;SDS011;9035;42.554;23.188;2022-10-15T11:36:22;6.43;;;5.00;;
17820;SDS011;9035;42.554;23.188;2022-10-15T11:39:05;7.90;;;4.67;;
17820;SDS011;9035;42.554;23.188;2022-10-15T11:41:45;6.57;;;5.30;;
17820;SDS011;9035;42.554;23.188;2022-10-15T11:44:25;7.80;;;4.70;;
17820;SDS011;9035;42.554;23.188;2022-10-15T11:47:06;7.60;;;4.07;;
17820;SDS011;9035;42.554;23.188;2022-10-15T11:49:42;6.37;;;4.57;;
17820;SDS011;9035;42.554;23.188;2022-10-15T11:52:23;4.80;;;4.30;;
17820;SDS011;9035;42.554;23.188;2022-10-15T11:55:01;7.67;;;4.60;;
17820;SDS011;9035;42.554;23.188;2022-10-15T11:57:35;6.23;;;5.23;;
17820;SDS011;9035;42.554;23.188;2022-10-15T12:00:05;8.87;;;5.90;;
17820;SDS011;9035;42.554;23.188;2022-10-15T12:02:40;8.17;;;6.20;;
17820;SDS011;9035;42.554;23.188;2022-10-15T12:05:09;12.43;;;6.47;;
17820;SDS011;9035;42.554;23.188;2022-10-15T12:07:43;7.37;;;5.03;;
17820;SDS011;9035;42.554;23.188;2022-10-15T12:10:19;6.30;;;4.30;;
17820;SDS011;9035;42.554;23.188;2022-10-15T12:13:00;5.67;;;4.63;;
17820;SDS011;9035;42.554;23.188;2022-10-15T12:15:34;5.83;;;4.77;;
17820;SDS011;9035;42.554;23.188;2022-10-15T12:18:11;4.97;;;4.20;;
17820;SDS011;9035;42.554;23.188;2022-10-15T12:20:53;4.87;;;4.37;;
17820;SDS011;9035;42.554;23.188;2022-10-15T12:23:23;5.97;;;4.97;;
17820;SDS011;9035;42.554;23.188;2022-10-15T12:25:51;6.13;;;4.63;;
17820;SDS011;9035;42.554;23.188;2022-10-15T12:28:21;5.43;;;4.50;;
17820;SDS011;9035;42.554;23.188;2022-10-15T12:30:53;5.73;;;4.37;;
17820;SDS011;9035;42.554;23.188;2022-10-15T12:33:28;6.00;;;4.57;;
17820;SDS011;9035;42.554;23.188;2022-10-15T12:35:59;6.37;;;4.57;;
17820;SDS011;9035;42.554;23.188;2022-10-15T12:38:28;6.13;;;4.70;;
17820;SDS011;9035;42.554;23.188;2022-10-15T12:40:58;6.37;;;4.57;;
17820;SDS011;9035;42.554;23.188;2022-10-15T12:43:29;5.33;;;4.37;;
17820;SDS011;9035;42.554;23.188;2022-10-15T12:45:58;5.97;;;4.53;;
17820;SDS011;9035;42.554;23.188;2022-10-15T12:48:28;5.07;;;4.37;;
17820;SDS011;9035;42.554;23.188;2022-10-15T12:56:59;16.30;;;8.30;;
17820;SDS011;9035;42.554;23.188;2022-10-15T12:59:52;6.43;;;4.53;;
17820;SDS011;9035;42.554;23.188;2022-10-15T13:05:22;11.73;;;4.73;;
17820;SDS011;9035;42.554;23.188;2022-10-15T13:07:50;13.33;;;5.07;;
17820;SDS011;9035;42.554;23.188;2022-10-15T13:10:18;5.13;;;4.17;;
17820;SDS011;9035;42.554;23.188;2022-10-15T13:12:50;7.00;;;4.00;;
17820;SDS011;9035;42.554;23.188;2022-10-15T13:15:20;5.53;;;3.43;;
17820;SDS011;9035;42.554;23.188;2022-10-15T13:17:49;4.57;;;4.00;;
17820;SDS011;9035;42.554;23.188;2022-10-15T13:20:25;5.97;;;4.40;;
17820;SDS011;9035;42.554;23.188;2022-10-15T13:25:43;6.53;;;4.10;;
17820;SDS011;9035;42.554;23.188;2022-10-15T13:28:28;5.63;;;4.10;;
17820;SDS011;9035;42.554;23.188;2022-10-15T13:30:58;7.93;;;4.43;;
17820;SDS011;9035;42.554;23.188;2022-10-15T13:33:25;5.20;;;4.10;;
17820;SDS011;9035;42.554;23.188;2022-10-15T13:35:52;6.27;;;3.93;;
17820;SDS011;9035;42.554;23.188;2022-10-15T13:38:20;5.53;;;3.93;;
17820;SDS011;9035;42.554;23.188;2022-10-15T13:40:48;4.90;;;4.40;;
17820;SDS011;9035;42.554;23.188;2022-10-15T13:43:16;5.00;;;4.10;;
17820;SDS011;9035;42.554;23.188;2022-10-15T13:45:45;5.13;;;3.97;;
17820;SDS011;9035;42.554;23.188;2022-10-15T13:48:16;4.40;;;3.97;;
17820;SDS011;9035;42.554;23.188;2022-10-15T13:50:46;3.90;;;3.50;;
17820;SDS011;9035;42.554;23.188;2022-10-15T13:53:17;5.03;;;3.97;;
17820;SDS011;9035;42.554;23.188;2022-10-15T13:55:49;9.57;;;4.30;;
17820;SDS011;9035;42.554;23.188;2022-10-15T13:58:18;4.33;;;3.63;;
17820;SDS011;9035;42.554;23.188;2022-10-15T14:00:48;4.77;;;3.60;;
17820;SDS011;9035;42.554;23.188;2022-10-15T14:03:19;3.93;;;3.43;;
17820;SDS011;9035;42.554;23.188;2022-10-15T14:05:48;3.50;;;3.20;;
17820;SDS011;9035;42.554;23.188;2022-10-15T14:08:18;3.93;;;3.40;;
17820;SDS011;9035;42.554;23.188;2022-10-15T14:10:47;4.97;;;3.67;;
17820;SDS011;9035;42.554;23.188;2022-10-15T14:13:14;3.77;;;3.10;;
17820;SDS011;9035;42.554;23.188;2022-10-15T14:15:42;3.83;;;3.10;;
17820;SDS011;9035;42.554;23.188;2022-10-15T14:18:27;3.87;;;3.27;;
17820;SDS011;9035;42.554;23.188;2022-10-15T14:20:57;6.87;;;3.20;;
17820;SDS011;9035;42.554;23.188;2022-10-15T14:23:26;3.57;;;3.03;;
17820;SDS011;9035;42.554;23.188;2022-10-15T14:25:54;5.60;;;3.57;;
17820;SDS011;9035;42.554;23.188;2022-10-15T14:28:22;3.70;;;3.30;;
17820;SDS011;9035;42.554;23.188;2022-10-15T14:30:51;3.50;;;3.00;;
17820;SDS011;9035;42.554;23.188;2022-10-15T14:33:33;6.47;;;3.40;;
17820;SDS011;9035;42.554;23.188;2022-10-15T14:36:08;3.63;;;2.83;;
17820;SDS011;9035;42.554;23.188;2022-10-15T14:38:37;4.00;;;3.10;;
17820;SDS011;9035;42.554;23.188;2022-10-15T14:41:05;4.23;;;3.00;;
17820;SDS011;9035;42.554;23.188;2022-10-15T14:43:58;3.87;;;3.10;;
17820;SDS011;9035;42.554;23.188;2022-10-15T14:46:27;4.63;;;2.80;;
17820;SDS011;9035;42.554;23.188;2022-10-15T14:49:02;3.53;;;3.00;;
17820;SDS011;9035;42.554;23.188;2022-10-15T14:51:40;3.93;;;2.87;;
17820;SDS011;9035;42.554;23.188;2022-10-15T14:54:08;4.27;;;2.53;;
17820;SDS011;9035;42.554;23.188;2022-10-15T14:56:43;2.43;;;2.00;;
17820;SDS011;9035;42.554;23.188;2022-10-15T14:59:12;5.50;;;3.23;;
17820;SDS011;9035;42.554;23.188;2022-10-15T15:01:49;5.73;;;3.27;;
17820;SDS011;9035;42.554;23.188;2022-10-15T15:04:32;5.87;;;3.87;;
17820;SDS011;9035;42.554;23.188;2022-10-15T15:07:05;4.00;;;3.10;;
17820;SDS011;9035;42.554;23.188;2022-10-15T15:09:40;6.87;;;3.43;;
17820;SDS011;9035;42.554;23.188;2022-10-15T15:12:14;5.43;;;3.33;;
17820;SDS011;9035;42.554;23.188;2022-10-15T15:14:43;5.73;;;3.70;;
17820;SDS011;9035;42.554;23.188;2022-10-15T15:17:17;6.00;;;3.50;;
17820;SDS011;9035;42.554;23.188;2022-10-15T15:19:46;3.73;;;3.30;;
17820;SDS011;9035;42.554;23.188;2022-10-15T15:22:14;4.13;;;3.67;;
17820;SDS011;9035;42.554;23.188;2022-10-15T15:24:43;4.27;;;3.30;;
17820;SDS011;9035;42.554;23.188;2022-10-15T15:27:17;6.53;;;3.43;;
17820;SDS011;9035;42.554;23.188;2022-10-15T15:29:48;6.73;;;3.50;;
17820;SDS011;9035;42.554;23.188;2022-10-15T15:32:16;4.47;;;3.47;;
17820;SDS011;9035;42.554;23.188;2022-10-15T15:34:42;4.90;;;3.70;;